createdAt,value
2023-05-19T00:01:00.431Z,1.98
2023-05-19T00:03:27.434Z,1.95
2023-05-19T00:05:54.453Z,1.70
2023-05-19T00:08:23.563Z,1.70
2023-05-19T00:10:50.673Z,1.73
2023-05-19T00:13:17.586Z,1.70
2023-05-19T00:15:44.653Z,1.65
2023-05-19T00:18:14.006Z,1.60
2023-05-19T00:20:41.387Z,1.60
2023-05-19T00:23:08.200Z,1.60
2023-05-19T00:25:34.866Z,1.52
2023-05-19T00:28:02.467Z,1.80
2023-05-19T00:30:30.450Z,2.20
2023-05-19T00:32:57.419Z,1.92
2023-05-19T00:35:24.615Z,1.90
2023-05-19T00:37:51.231Z,1.63
2023-05-19T00:40:18.951Z,1.70
2023-05-19T00:42:45.716Z,2.47
2023-05-19T00:45:12.430Z,1.65
2023-05-19T00:47:39.522Z,2.15
2023-05-19T00:50:06.914Z,1.80
2023-05-19T00:52:33.792Z,1.88
2023-05-19T00:55:00.924Z,1.50
2023-05-19T00:57:28.315Z,1.30
2023-05-19T00:59:55.468Z,1.52
2023-05-19T01:02:22.246Z,1.80
2023-05-19T01:04:51.148Z,1.90
2023-05-19T01:07:18.871Z,2.00
2023-05-19T01:09:47.361Z,1.80
2023-05-19T01:12:14.298Z,1.80
2023-05-19T01:14:41.758Z,1.90
2023-05-19T01:17:18.784Z,2.20
2023-05-19T01:20:08.276Z,1.60
2023-05-19T01:23:15.060Z,1.98
2023-05-19T01:25:50.739Z,1.83
2023-05-19T01:28:57.741Z,1.35
2023-05-19T01:31:26.732Z,1.98
2023-05-19T01:33:54.587Z,1.67
2023-05-19T01:36:23.362Z,1.50
2023-05-19T01:38:56.797Z,1.83
2023-05-19T01:41:26.244Z,2.00
2023-05-19T01:43:54.277Z,1.95
2023-05-19T01:46:22.246Z,2.03
2023-05-19T01:48:49.403Z,2.10
2023-05-19T01:51:16.060Z,2.00
2023-05-19T01:53:42.911Z,2.03
2023-05-19T01:56:09.834Z,1.50
2023-05-19T01:58:48.156Z,1.97
2023-05-19T02:01:36.630Z,1.80
2023-05-19T02:04:30.485Z,1.85
2023-05-19T02:07:05.338Z,2.20
2023-05-19T02:09:35.593Z,1.77
2023-05-19T02:12:11.011Z,2.00
2023-05-19T02:14:52.811Z,1.77
2023-05-19T02:17:20.828Z,2.00
2023-05-19T02:19:47.694Z,1.98
2023-05-19T02:22:14.914Z,1.90
2023-05-19T02:24:41.601Z,2.37
2023-05-19T02:27:08.359Z,1.90
2023-05-19T02:29:35.002Z,1.80
2023-05-19T02:32:02.148Z,1.88
2023-05-19T02:34:28.958Z,1.80
2023-05-19T02:36:56.564Z,1.83
2023-05-19T02:39:23.313Z,2.08
2023-05-19T02:41:50.084Z,2.00
2023-05-19T02:44:16.783Z,1.80
2023-05-19T02:46:43.634Z,2.67
2023-05-19T02:49:11.215Z,1.80
2023-05-19T02:51:39.094Z,1.83
2023-05-19T02:54:05.867Z,1.80
2023-05-19T02:56:32.599Z,2.10
2023-05-19T02:58:59.290Z,1.90
2023-05-19T03:01:26.358Z,2.00
2023-05-19T03:03:53.231Z,1.85
2023-05-19T03:06:20.012Z,2.08
2023-05-19T03:08:46.741Z,1.83
2023-05-19T03:11:13.649Z,2.17
2023-05-19T03:13:40.282Z,2.10
2023-05-19T03:16:08.036Z,1.77
2023-05-19T03:18:35.150Z,2.35
2023-05-19T03:21:01.885Z,2.85
2023-05-19T03:23:28.563Z,2.13
2023-05-19T03:25:56.289Z,2.07
2023-05-19T03:28:23.502Z,2.03
2023-05-19T03:30:50.948Z,2.08
2023-05-19T03:33:20.806Z,1.88
2023-05-19T03:35:47.873Z,1.92
2023-05-19T03:38:15.404Z,2.00
2023-05-19T03:40:49.491Z,2.22
2023-05-19T03:43:16.338Z,1.92
2023-05-19T03:45:51.798Z,1.63
2023-05-19T03:48:53.851Z,1.30
2023-05-19T03:51:23.416Z,1.77
2023-05-19T03:53:54.030Z,1.67
2023-05-19T03:56:23.087Z,1.80
2023-05-19T03:58:49.935Z,1.95
2023-05-19T04:01:16.636Z,1.90
2023-05-19T04:03:43.347Z,2.87
2023-05-19T04:06:10.130Z,1.95
2023-05-19T04:08:36.831Z,2.00
2023-05-19T04:11:03.673Z,1.63
2023-05-19T04:13:33.151Z,1.98
2023-05-19T04:16:00.028Z,2.00
2023-05-19T04:18:28.817Z,1.80
2023-05-19T04:20:55.832Z,1.98
2023-05-19T04:23:22.573Z,2.33
2023-05-19T04:25:49.762Z,1.92
2023-05-19T04:28:16.590Z,1.77
2023-05-19T04:30:43.283Z,2.00
2023-05-19T04:33:09.987Z,2.40
2023-05-19T04:35:38.209Z,2.00
2023-05-19T04:38:05.851Z,2.03
2023-05-19T04:40:33.954Z,2.00
2023-05-19T04:43:02.375Z,2.40
2023-05-19T04:45:30.327Z,2.10
2023-05-19T04:48:00.149Z,2.00
2023-05-19T04:50:28.627Z,1.83
2023-05-19T04:52:58.935Z,2.20
2023-05-19T04:55:26.077Z,2.28
2023-05-19T04:57:53.254Z,2.05
2023-05-19T05:00:21.298Z,2.47
2023-05-19T05:02:58.744Z,2.10
2023-05-19T05:05:28.370Z,2.30
2023-05-19T05:07:55.491Z,2.30
2023-05-19T05:10:24.137Z,2.20
2023-05-19T05:12:51.614Z,1.80
2023-05-19T05:15:18.842Z,2.10
2023-05-19T05:17:48.760Z,1.93
2023-05-19T05:20:16.414Z,2.03
2023-05-19T05:22:43.351Z,1.85
2023-05-19T05:25:10.958Z,1.90
2023-05-19T05:27:38.194Z,2.05
2023-05-19T05:30:07.402Z,2.00
2023-05-19T05:32:34.368Z,2.03
2023-05-19T05:35:03.315Z,2.20
2023-05-19T05:37:31.372Z,2.50
2023-05-19T05:39:58.192Z,2.10
2023-05-19T05:42:25.861Z,2.20
2023-05-19T05:44:53.832Z,2.50
2023-05-19T05:47:20.906Z,2.72
2023-05-19T05:49:48.670Z,2.28
2023-05-19T05:52:18.740Z,2.60
2023-05-19T05:54:47.935Z,2.50
2023-05-19T05:57:17.557Z,2.35
2023-05-19T05:59:47.072Z,2.55
2023-05-19T06:02:14.700Z,2.20
2023-05-19T06:04:41.832Z,2.35
2023-05-19T06:07:08.928Z,3.33
2023-05-19T06:09:37.936Z,2.97
2023-05-19T06:12:06.836Z,2.97
2023-05-19T06:14:38.911Z,3.13
2023-05-19T06:17:11.502Z,3.00
2023-05-19T06:19:38.511Z,3.20
2023-05-19T06:22:05.520Z,3.65
2023-05-19T06:24:33.128Z,3.88
2023-05-19T06:26:59.784Z,2.90
2023-05-19T06:29:26.657Z,2.72
2023-05-19T06:31:55.746Z,2.77
2023-05-19T06:34:22.505Z,3.20
2023-05-19T06:36:49.247Z,3.38
2023-05-19T06:39:18.269Z,3.58
2023-05-19T06:41:45.680Z,3.58
2023-05-19T06:44:24.522Z,3.10
2023-05-19T06:46:51.272Z,3.53
2023-05-19T06:49:18.069Z,4.00
2023-05-19T06:51:46.111Z,3.13
2023-05-19T06:54:16.006Z,3.90
2023-05-19T06:56:42.952Z,3.40
2023-05-19T06:59:10.454Z,4.20
2023-05-19T07:01:38.758Z,3.50
2023-05-19T07:04:06.165Z,3.60
2023-05-19T07:06:33.972Z,3.80
2023-05-19T07:09:01.113Z,4.00
2023-05-19T07:11:28.606Z,3.10
2023-05-19T07:13:55.739Z,3.42
2023-05-19T07:16:27.328Z,3.70
2023-05-19T07:18:55.323Z,4.05
2023-05-19T07:21:22.281Z,4.70
2023-05-19T07:23:50.093Z,4.03
2023-05-19T07:26:16.816Z,4.18
2023-05-19T07:28:43.630Z,4.72
2023-05-19T07:31:10.377Z,4.72
2023-05-19T07:33:37.124Z,3.97
2023-05-19T07:36:04.615Z,3.67
2023-05-19T07:38:34.510Z,4.15
2023-05-19T07:41:02.085Z,4.20
2023-05-19T07:43:28.772Z,3.75
2023-05-19T07:45:56.431Z,4.50
2023-05-19T07:48:25.645Z,4.03
2023-05-19T07:50:53.373Z,4.78
2023-05-19T07:53:20.605Z,4.28
2023-05-19T07:55:47.493Z,4.50
2023-05-19T07:58:14.802Z,4.70
2023-05-19T08:00:43.224Z,4.40
2023-05-19T08:03:10.243Z,4.07
2023-05-19T08:05:37.561Z,4.38
2023-05-19T08:08:04.661Z,4.22
2023-05-19T08:10:31.607Z,4.43
2023-05-19T08:12:58.508Z,4.47
2023-05-19T08:15:25.555Z,4.60
2023-05-19T08:17:52.574Z,3.92
2023-05-19T08:20:19.417Z,4.88
2023-05-19T08:22:46.215Z,4.17
2023-05-19T08:25:13.891Z,5.32
2023-05-19T08:27:41.436Z,5.05
2023-05-19T08:30:08.842Z,5.43
2023-05-19T08:32:35.761Z,4.93
2023-05-19T08:35:02.488Z,4.93
2023-05-19T08:37:29.181Z,4.82
2023-05-19T08:39:55.811Z,4.70
2023-05-19T08:42:22.971Z,4.70
2023-05-19T08:44:49.741Z,4.18
2023-05-19T08:47:17.850Z,5.03
2023-05-19T08:49:46.239Z,5.47
2023-05-19T08:52:21.020Z,4.93
2023-05-19T08:54:55.869Z,4.70
2023-05-19T08:57:24.939Z,4.90
2023-05-19T08:59:52.238Z,4.00
2023-05-19T09:02:19.925Z,4.28
2023-05-19T09:04:48.132Z,4.30
2023-05-19T09:07:15.588Z,4.63
2023-05-19T09:09:44.077Z,3.92
2023-05-19T09:12:11.714Z,4.90
2023-05-19T09:14:38.855Z,4.78
2023-05-19T09:17:06.004Z,4.35
2023-05-19T09:19:33.066Z,4.68
2023-05-19T09:22:01.460Z,4.35
2023-05-19T09:24:28.571Z,5.00
2023-05-19T09:27:00.202Z,5.03
2023-05-19T09:29:27.232Z,4.32
2023-05-19T09:32:00.521Z,4.60
2023-05-19T09:34:27.768Z,5.22
2023-05-19T09:36:54.644Z,5.07
2023-05-19T09:39:23.120Z,5.18
2023-05-19T09:41:54.218Z,4.60
2023-05-19T09:44:21.144Z,5.00
2023-05-19T09:46:51.826Z,4.60
2023-05-19T09:49:22.916Z,4.90
2023-05-19T09:51:51.232Z,5.20
2023-05-19T09:54:20.424Z,4.43
2023-05-19T09:56:53.169Z,4.60
2023-05-19T09:59:23.887Z,4.40
2023-05-19T10:01:53.483Z,4.40
2023-05-19T10:04:21.132Z,4.10
2023-05-19T10:06:53.490Z,4.20
2023-05-19T10:09:26.433Z,3.83
2023-05-19T10:11:54.673Z,4.25
2023-05-19T10:14:28.704Z,4.03
2023-05-19T10:16:57.693Z,4.15
2023-05-19T10:19:26.262Z,4.30
2023-05-19T10:21:54.073Z,5.13
2023-05-19T10:24:21.698Z,4.22
2023-05-19T10:26:53.410Z,3.97
2023-05-19T10:29:25.552Z,4.40
2023-05-19T10:31:54.289Z,4.22
2023-05-19T10:34:25.987Z,3.65
2023-05-19T10:37:25.017Z,4.20
2023-05-19T10:39:52.552Z,5.30
2023-05-19T10:42:38.064Z,4.55
2023-05-19T10:45:17.039Z,4.53
2023-05-19T10:47:44.631Z,3.72
2023-05-19T10:50:12.072Z,4.13
2023-05-19T10:52:39.789Z,5.43
2023-05-19T10:55:17.666Z,3.95
2023-05-19T10:57:56.791Z,4.00
2023-05-19T11:00:28.261Z,4.05
2023-05-19T11:03:13.574Z,4.00
2023-05-19T11:05:40.626Z,4.63
2023-05-19T11:08:12.083Z,4.30
2023-05-19T11:10:39.226Z,4.05
2023-05-19T11:13:06.797Z,4.15
2023-05-19T11:15:39.094Z,3.95
2023-05-19T11:18:06.185Z,4.20
2023-05-19T11:20:35.071Z,4.00
2023-05-19T11:23:06.841Z,4.75
2023-05-19T11:25:54.378Z,4.30
2023-05-19T11:28:28.042Z,4.18
2023-05-19T11:30:57.802Z,4.00
2023-05-19T11:33:27.583Z,4.15
2023-05-19T11:35:58.528Z,4.47
2023-05-19T11:38:26.440Z,4.40
2023-05-19T11:40:54.142Z,3.83
2023-05-19T11:43:24.993Z,4.60
2023-05-19T11:45:52.069Z,3.90
2023-05-19T11:48:22.656Z,4.10
2023-05-19T11:50:50.206Z,4.07
2023-05-19T11:53:17.646Z,4.03
2023-05-19T11:55:49.037Z,4.47
2023-05-19T11:58:16.780Z,4.63
2023-05-19T12:00:46.725Z,5.03
2023-05-19T12:03:13.735Z,3.70
2023-05-19T12:05:45.921Z,3.88
2023-05-19T12:08:13.448Z,3.90
2023-05-19T12:10:40.573Z,3.90
2023-05-19T12:13:10.692Z,3.42
2023-05-19T12:15:37.825Z,4.07
2023-05-19T12:18:04.687Z,3.75
2023-05-19T12:20:32.617Z,3.97
2023-05-19T12:23:00.807Z,3.63
2023-05-19T12:25:29.227Z,3.85
2023-05-19T12:28:03.247Z,3.83
2023-05-19T12:30:33.099Z,3.95
2023-05-19T12:33:01.994Z,3.60
2023-05-19T12:35:32.130Z,4.07
2023-05-19T12:38:03.661Z,3.75
2023-05-19T12:40:30.642Z,3.75
2023-05-19T12:42:59.317Z,4.30
2023-05-19T12:45:28.587Z,4.33
2023-05-19T12:47:56.008Z,3.83
2023-05-19T12:50:30.877Z,3.35
2023-05-19T12:52:59.816Z,4.35
2023-05-19T12:55:27.029Z,3.53
2023-05-19T12:57:56.973Z,3.60
2023-05-19T13:00:32.628Z,3.28
2023-05-19T13:03:02.859Z,3.40
2023-05-19T13:05:34.313Z,3.20
2023-05-19T13:08:02.314Z,3.40
2023-05-19T13:10:31.337Z,3.80
2023-05-19T13:13:17.447Z,3.55
2023-05-19T13:16:03.196Z,3.55
2023-05-19T13:18:48.263Z,3.88
2023-05-19T13:21:15.817Z,3.85
2023-05-19T13:23:42.522Z,3.60
2023-05-19T13:26:11.531Z,3.30
2023-05-19T13:28:38.197Z,2.92
2023-05-19T13:31:05.038Z,3.10
2023-05-19T13:33:32.132Z,3.13
2023-05-19T13:35:58.868Z,3.63
2023-05-19T13:38:25.574Z,3.20
2023-05-19T13:40:52.383Z,2.85
2023-05-19T13:43:19.058Z,3.55
2023-05-19T13:45:45.833Z,3.42
2023-05-19T13:48:13.133Z,3.60
2023-05-19T13:50:40.031Z,3.20
2023-05-19T13:53:06.817Z,3.30
2023-05-19T13:55:33.674Z,3.63
2023-05-19T13:58:00.475Z,3.58
2023-05-19T14:00:27.280Z,3.90
2023-05-19T14:02:54.040Z,3.22
2023-05-19T14:05:20.909Z,3.60
2023-05-19T14:07:47.654Z,3.65
2023-05-19T14:10:14.477Z,3.45
2023-05-19T14:13:06.496Z,3.03
2023-05-19T14:15:28.261Z,3.60
2023-05-19T14:17:55.114Z,3.30
2023-05-19T14:20:22.072Z,3.50
2023-05-19T14:22:48.764Z,3.10
2023-05-19T14:25:15.739Z,4.00
2023-05-19T14:27:42.481Z,3.63
2023-05-19T14:30:09.730Z,3.60
2023-05-19T14:32:36.610Z,3.40
2023-05-19T14:35:03.766Z,3.45
2023-05-19T14:37:31.911Z,3.37
2023-05-19T14:39:59.677Z,3.78
2023-05-19T14:42:26.347Z,3.55
2023-05-19T14:44:53.107Z,3.25
2023-05-19T14:47:19.917Z,3.30
2023-05-19T14:49:46.921Z,3.40
2023-05-19T14:52:13.613Z,3.42
2023-05-19T14:54:40.441Z,3.10
2023-05-19T14:57:08.222Z,3.13
2023-05-19T14:59:38.519Z,3.35
2023-05-19T15:02:06.113Z,3.10
2023-05-19T15:04:32.844Z,3.10
2023-05-19T15:07:09.839Z,2.83
2023-05-19T15:09:37.523Z,3.20
2023-05-19T15:12:04.346Z,2.95
2023-05-19T15:14:31.428Z,3.60
2023-05-19T15:16:58.711Z,3.50
2023-05-19T15:19:26.178Z,3.50
2023-05-19T15:21:53.191Z,3.90
2023-05-19T15:24:20.982Z,3.33
2023-05-19T15:26:47.858Z,4.13
2023-05-19T15:29:14.628Z,3.47
2023-05-19T15:31:41.643Z,3.47
2023-05-19T15:34:08.736Z,4.10
2023-05-19T15:36:35.588Z,2.80
2023-05-19T15:39:03.729Z,3.40
2023-05-19T15:41:30.814Z,3.45
2023-05-19T15:44:00.156Z,4.05
2023-05-19T15:46:27.238Z,4.00
2023-05-19T15:48:54.037Z,3.78
2023-05-19T15:51:21.017Z,3.30
2023-05-19T15:53:48.032Z,3.17
2023-05-19T15:56:14.833Z,3.53
2023-05-19T15:58:41.649Z,3.40
2023-05-19T16:01:08.797Z,3.58
2023-05-19T16:03:35.756Z,3.37
2023-05-19T16:06:02.710Z,3.00
2023-05-19T16:08:29.689Z,3.75
2023-05-19T16:10:56.403Z,4.55
2023-05-19T16:13:23.235Z,3.40
2023-05-19T16:15:50.060Z,3.53
2023-05-19T16:18:16.991Z,3.90
2023-05-19T16:20:44.127Z,3.67
2023-05-19T16:23:10.954Z,3.70
2023-05-19T16:25:37.711Z,3.35
2023-05-19T16:28:05.128Z,3.27
2023-05-19T16:30:32.231Z,3.50
2023-05-19T16:32:59.637Z,3.38
2023-05-19T16:35:29.384Z,3.97
2023-05-19T16:37:56.258Z,3.97
2023-05-19T16:40:23.025Z,4.30
2023-05-19T16:42:49.876Z,3.80
2023-05-19T16:45:17.538Z,3.67
2023-05-19T16:47:45.541Z,4.00
2023-05-19T16:50:12.987Z,4.55
2023-05-19T16:52:39.808Z,4.50
2023-05-19T16:55:07.127Z,7.90
2023-05-19T16:57:33.932Z,5.20
2023-05-19T17:00:00.699Z,4.53
2023-05-19T17:02:28.216Z,4.22
2023-05-19T17:04:55.469Z,4.10
2023-05-19T17:07:22.175Z,4.30
2023-05-19T17:09:49.113Z,4.10
2023-05-19T17:12:15.992Z,4.07
2023-05-19T17:14:43.589Z,3.55
2023-05-19T17:17:11.036Z,4.20
2023-05-19T17:19:37.952Z,3.95
2023-05-19T17:22:04.729Z,4.25
2023-05-19T17:24:33.812Z,4.28
2023-05-19T17:27:01.034Z,4.65
2023-05-19T17:29:28.065Z,3.70
2023-05-19T17:31:55.478Z,4.10
2023-05-19T17:34:22.331Z,4.07
2023-05-19T17:36:49.803Z,3.70
2023-05-19T17:39:16.688Z,4.03
2023-05-19T17:41:43.400Z,3.93
2023-05-19T17:44:11.186Z,4.00
2023-05-19T17:46:39.383Z,4.47
2023-05-19T17:49:06.603Z,4.25
2023-05-19T17:51:33.637Z,4.30
2023-05-19T17:54:00.769Z,3.97
2023-05-19T17:56:32.052Z,4.50
2023-05-19T17:58:59.212Z,4.03
2023-05-19T18:01:26.306Z,3.60
2023-05-19T18:03:53.600Z,4.35
2023-05-19T18:06:20.593Z,3.83
2023-05-19T18:08:50.405Z,4.45
2023-05-19T18:11:18.245Z,4.43
2023-05-19T18:13:45.028Z,4.47
2023-05-19T18:16:12.771Z,3.92
2023-05-19T18:18:43.398Z,3.93
2023-05-19T18:21:17.660Z,4.15
2023-05-19T18:23:45.472Z,4.85
2023-05-19T18:26:13.114Z,4.40
2023-05-19T18:28:41.305Z,4.35
2023-05-19T18:31:17.190Z,4.20
2023-05-19T18:33:47.037Z,4.85
2023-05-19T18:36:16.370Z,3.90
2023-05-19T18:38:43.117Z,4.30
2023-05-19T18:41:09.846Z,4.03
2023-05-19T18:43:36.536Z,4.93
2023-05-19T18:46:03.288Z,3.92
2023-05-19T18:48:30.205Z,4.05
2023-05-19T18:50:57.204Z,4.25
2023-05-19T18:53:23.959Z,3.65
2023-05-19T18:55:50.895Z,4.30
2023-05-19T18:58:18.194Z,4.32
2023-05-19T19:00:45.179Z,4.10
2023-05-19T19:03:12.211Z,4.20
2023-05-19T19:05:40.111Z,3.88
2023-05-19T19:08:07.090Z,4.87
2023-05-19T19:10:37.291Z,4.35
2023-05-19T19:13:04.285Z,5.03
2023-05-19T19:15:31.667Z,4.13
2023-05-19T19:17:58.513Z,4.32
2023-05-19T19:20:25.554Z,4.70
2023-05-19T19:22:52.924Z,4.82
2023-05-19T19:25:21.296Z,5.13
2023-05-19T19:27:50.671Z,4.85
2023-05-19T19:30:17.523Z,4.97
2023-05-19T19:32:44.391Z,5.63
2023-05-19T19:35:11.264Z,5.32
2023-05-19T19:37:38.024Z,5.28
2023-05-19T19:40:05.401Z,5.55
2023-05-19T19:42:32.438Z,5.25
2023-05-19T19:44:59.348Z,4.80
2023-05-19T19:47:27.231Z,4.72
2023-05-19T19:49:54.011Z,5.72
2023-05-19T19:52:20.749Z,5.57
2023-05-19T19:54:48.121Z,5.57
2023-05-19T19:57:17.204Z,5.33
2023-05-19T19:59:44.097Z,5.30
2023-05-19T20:02:10.985Z,5.70
2023-05-19T20:04:38.104Z,5.75
2023-05-19T20:07:05.059Z,5.18
2023-05-19T20:09:31.792Z,5.20
2023-05-19T20:11:58.720Z,5.40
2023-05-19T20:14:25.505Z,5.53
2023-05-19T20:16:52.302Z,5.70
2023-05-19T20:19:19.011Z,6.38
2023-05-19T20:21:45.760Z,6.17
2023-05-19T20:24:12.552Z,5.90
2023-05-19T20:26:39.350Z,5.22
2023-05-19T20:29:06.053Z,5.70
2023-05-19T20:31:32.785Z,5.85
2023-05-19T20:34:00.133Z,6.50
2023-05-19T20:36:28.290Z,5.43
2023-05-19T20:38:55.034Z,5.75
2023-05-19T20:41:22.581Z,6.82
2023-05-19T20:43:49.305Z,6.57
2023-05-19T20:46:16.236Z,6.20
2023-05-19T20:48:43.040Z,6.40
2023-05-19T20:51:09.797Z,6.50
2023-05-19T20:53:36.640Z,5.50
2023-05-19T20:56:05.231Z,5.60
2023-05-19T20:58:32.057Z,6.07
2023-05-19T21:00:58.910Z,6.75
2023-05-19T21:03:27.112Z,5.80
2023-05-19T21:05:54.993Z,6.00
2023-05-19T21:08:22.077Z,6.00
2023-05-19T21:10:48.832Z,6.07
2023-05-19T21:13:15.662Z,7.18
2023-05-19T21:15:42.328Z,6.13
2023-05-19T21:18:11.357Z,7.55
2023-05-19T21:20:38.768Z,5.97
2023-05-19T21:23:05.779Z,6.13
2023-05-19T21:25:32.511Z,6.40
2023-05-19T21:27:59.458Z,5.90
2023-05-19T21:30:26.192Z,6.53
2023-05-19T21:32:53.305Z,6.65
2023-05-19T21:35:20.088Z,6.40
2023-05-19T21:37:46.743Z,6.25
2023-05-19T21:40:13.493Z,6.32
2023-05-19T21:42:40.186Z,6.38
2023-05-19T21:45:07.527Z,6.43
2023-05-19T21:47:34.232Z,6.60
2023-05-19T21:50:01.133Z,5.78
2023-05-19T21:52:31.384Z,7.68
2023-05-19T21:54:58.381Z,6.35
2023-05-19T21:57:25.283Z,6.85
2023-05-19T21:59:52.018Z,6.80
2023-05-19T22:02:18.736Z,6.60
2023-05-19T22:04:45.756Z,6.05
2023-05-19T22:07:12.421Z,8.45
2023-05-19T22:09:39.234Z,7.70
2023-05-19T22:12:06.523Z,6.30
2023-05-19T22:14:33.329Z,6.60
2023-05-19T22:17:00.168Z,7.20
2023-05-19T22:19:26.896Z,6.90
2023-05-19T22:22:01.739Z,6.25
2023-05-19T22:24:33.031Z,7.40
2023-05-19T22:26:59.745Z,6.50
2023-05-19T22:29:26.407Z,8.95
2023-05-19T22:31:53.111Z,7.97
2023-05-19T22:34:19.981Z,6.70
2023-05-19T22:36:46.776Z,7.80
2023-05-19T22:39:13.612Z,7.60
2023-05-19T22:41:40.748Z,6.75
2023-05-19T22:44:09.111Z,7.20
2023-05-19T22:46:36.205Z,7.35
2023-05-19T22:49:03.186Z,6.60
2023-05-19T22:51:29.894Z,8.55
2023-05-19T22:53:56.651Z,6.53
2023-05-19T22:56:23.402Z,6.75
2023-05-19T22:58:50.519Z,6.97
2023-05-19T23:01:17.429Z,6.93
2023-05-19T23:03:44.589Z,6.65
2023-05-19T23:06:11.433Z,6.22
2023-05-19T23:08:38.062Z,6.57
2023-05-19T23:11:04.809Z,7.60
2023-05-19T23:13:31.751Z,6.50
2023-05-19T23:15:58.476Z,6.40
2023-05-19T23:18:25.244Z,6.20
2023-05-19T23:20:51.875Z,6.95
2023-05-19T23:23:19.258Z,7.55
2023-05-19T23:25:46.084Z,6.00
2023-05-19T23:28:12.795Z,6.28
2023-05-19T23:30:39.687Z,6.82
2023-05-19T23:33:06.497Z,6.18
2023-05-19T23:35:33.451Z,6.18
2023-05-19T23:38:00.395Z,6.30
2023-05-19T23:40:27.096Z,6.15
2023-05-19T23:42:53.819Z,6.15
2023-05-19T23:45:20.580Z,6.63
2023-05-19T23:47:47.310Z,7.20
2023-05-19T23:50:13.989Z,6.53
2023-05-19T23:52:40.752Z,7.10
2023-05-19T23:55:08.312Z,7.15
2023-05-19T23:57:35.069Z,8.52
